Wetterdaten: Woche 22.11.10 - 28.11.10 (KW47)
Datum Zeit Temp. A. Feuchte A. Luftdruck Regen Wind Richtung Taupunkt Windchill Windben
22.11.2010 00:00 3,8 C 87 % 1000,6 hPa 0,0 l/m 0,0 km/h S 1,8 C 3,8 C 0,0 km/h
22.11.2010 01:00 3,8 C 87 % 999,8 hPa 0,0 l/m 0,0 km/h SO 1,8 C 3,8 C 0,0 km/h
22.11.2010 02:00 3,7 C 87 % 999,8 hPa 0,0 l/m 0,0 km/h SO 1,7 C 3,7 C 0,0 km/h
22.11.2010 03:00 3,4 C 87 % 999,7 hPa 0,0 l/m 0,0 km/h SO 1,4 C 3,4 C 0,0 km/h
22.11.2010 04:00 3,5 C 87 % 999,0 hPa 0,0 l/m 0,0 km/h SW 1,5 C 3,5 C 0,0 km/h
22.11.2010 05:00 3,5 C 87 % 998,9 hPa 0,0 l/m 0,0 km/h W-NW 1,5 C 3,5 C 0,0 km/h
22.11.2010 06:00 3,6 C 86 % 998,8 hPa 0,0 l/m 0,0 km/h W-NW 1,5 C 3,6 C 0,0 km/h
22.11.2010 07:00 3,4 C 86 % 998,9 hPa 0,0 l/m 0,0 km/h W-NW 1,3 C 3,4 C 0,0 km/h
22.11.2010 08:00 3,4 C 86 % 999,2 hPa 0,0 l/m 0,0 km/h W-NW 1,3 C 3,4 C 0,0 km/h
22.11.2010 09:00 3,5 C 86 % 999,4 hPa 0,0 l/m 0,0 km/h W 1,4 C 3,5 C 0,0 km/h
22.11.2010 10:00 3,9 C 86 % 999,7 hPa 0,0 l/m 0,0 km/h W-SW 1,8 C 3,9 C 0,0 km/h
22.11.2010 11:00 4,4 C 86 % 999,6 hPa 0,0 l/m 0,0 km/h W-SW 2,3 C 4,4 C 0,0 km/h
22.11.2010 12:00 4,6 C 88 % 999,5 hPa 0,0 l/m 0,0 km/h W-SW 2,8 C 4,6 C 0,0 km/h
22.11.2010 13:00 4,5 C 88 % 999,3 hPa 0,0 l/m 0,0 km/h S-SW 2,7 C 4,5 C 0,0 km/h
22.11.2010 14:00 4,3 C 88 % 999,2 hPa 0,0 l/m 0,0 km/h S-SO 2,5 C 4,3 C 0,0 km/h
22.11.2010 15:00 4,4 C 88 % 999,3 hPa 0,4 l/m 0,0 km/h S-SO 2,6 C 4,4 C 0,0 km/h
22.11.2010 16:00 4,1 C 88 % 999,5 hPa 0,0 l/m 0,0 km/h S-SO 2,3 C 4,1 C 0,0 km/h
22.11.2010 17:00 3,8 C 87 % 999,7 hPa 0,0 l/m 0,0 km/h S-SO 1,8 C 3,8 C 0,0 km/h
22.11.2010 18:00 3,8 C 87 % 1000,3 hPa 0,0 l/m 0,0 km/h S-SO 1,8 C 3,8 C 0,0 km/h
22.11.2010 19:00 3,8 C 87 % 1000,4 hPa 0,0 l/m 0,0 km/h O-SO 1,8 C 3,8 C 0,0 km/h
22.11.2010 20:00 3,8 C 87 % 1000,6 hPa 0,4 l/m 0,0 km/h O-SO 1,8 C 3,8 C 0,0 km/h
22.11.2010 21:00 3,8 C 87 % 1000,9 hPa 0,7 l/m 0,0 km/h W 1,8 C 3,8 C 0,0 km/h
22.11.2010 22:00 3,7 C 86 % 1001,0 hPa 0,7 l/m 0,0 km/h W-SW 1,6 C 3,7 C 0,0 km/h
22.11.2010 23:00 3,5 C 86 % 1001,1 hPa 0,0 l/m 0,0 km/h W-SW 1,4 C 3,5 C 0,0 km/h
23.11.2010 00:00 3,4 C 86 % 1001,5 hPa 0,0 l/m 0,0 km/h W-SW 1,3 C 3,4 C 0,0 km/h
23.11.2010 01:00 3,4 C 86 % 1001,7 hPa 0,4 l/m 0,0 km/h N-NW 1,3 C 3,4 C 0,0 km/h
23.11.2010 02:00 3,3 C 86 % 1001,9 hPa 0,4 l/m 0,0 km/h SW 1,2 C 3,3 C 0,0 km/h
23.11.2010 03:00 3,1 C 86 % 1002,2 hPa 0,7 l/m 2,6 km/h NW 1,0 C 3,1 C 1,4 km/h
23.11.2010 04:00 3,1 C 86 % 1002,2 hPa 0,0 l/m 0,0 km/h N-NO 1,0 C 3,1 C 0,0 km/h
23.11.2010 05:00 3,1 C 86 % 1002,5 hPa 0,4 l/m 0,0 km/h N-NO 1,0 C 3,1 C 0,0 km/h
23.11.2010 06:00 2,7 C 86 % 1002,6 hPa 0,4 l/m 0,0 km/h SO 0,6 C 2,7 C 0,0 km/h
23.11.2010 07:00 2,6 C 86 % 1003,1 hPa 0,4 l/m 0,0 km/h S 0,5 C 2,6 C 0,0 km/h
23.11.2010 08:00 2,8 C 86 % 1003,5 hPa 0,0 l/m 0,0 km/h S-SO 0,7 C 2,8 C 0,0 km/h
23.11.2010 09:00 2,9 C 86 % 1004,0 hPa 0,7 l/m 0,0 km/h W-SW 0,8 C 2,9 C 0,0 km/h
23.11.2010 10:00 3,0 C 86 % 1004,3 hPa 0,0 l/m 1,9 km/h W-SW 0,9 C 3,0 C 1,1 km/h
23.11.2010 11:00 2,9 C 86 % 1004,5 hPa 0,4 l/m 6,5 km/h SW 0,8 C 2,8 C 3,6 km/h
23.11.2010 12:00 1,8 C 87 % 1004,9 hPa 0,4 l/m 1,3 km/h S-SO -0,1 C 1,8 C 0,7 km/h
23.11.2010 13:00 2,1 C 87 % 1005,0 hPa 0,4 l/m 0,6 km/h S-SO 0,2 C 2,1 C 0,4 km/h
23.11.2010 14:00 3,4 C 87 % 1005,1 hPa 0,0 l/m 0,0 km/h S-SO 1,4 C 3,4 C 0,0 km/h
23.11.2010 15:00 3,4 C 89 % 1005,5 hPa 0,0 l/m 0,0 km/h W 1,8 C 3,4 C 0,0 km/h
23.11.2010 16:00 2,9 C 89 % 1005,5 hPa 0,0 l/m 0,0 km/h S 1,3 C 2,9 C 0,0 km/h
23.11.2010 17:00 2,1 C 88 % 1006,2 hPa 0,0 l/m 0,0 km/h SO 0,3 C 2,1 C 0,0 km/h
23.11.2010 18:00 2,1 C 88 % 1006,4 hPa 0,0 l/m 0,0 km/h O-SO 0,3 C 2,1 C 0,0 km/h
23.11.2010 19:00 2,1 C 87 % 1006,6 hPa 0,0 l/m 0,0 km/h NO 0,2 C 2,1 C 0,0 km/h
23.11.2010 20:00 2,0 C 87 % 1006,6 hPa 0,0 l/m 0,0 km/h O-NO 0,1 C 2,0 C 0,0 km/h
23.11.2010 21:00 2,1 C 87 % 1006,6 hPa 0,0 l/m 0,0 km/h O-NO 0,2 C 2,1 C 0,0 km/h
23.11.2010 22:00 2,2 C 87 % 1006,8 hPa 0,0 l/m 0,0 km/h O-NO 0,3 C 2,2 C 0,0 km/h
23.11.2010 23:00 2,4 C 87 % 1006,9 hPa 0,0 l/m 0,0 km/h W-SW 0,5 C 2,4 C 0,0 km/h
24.11.2010 00:00 2,6 C 88 % 1006,9 hPa 0,0 l/m 7,1 km/h SW 0,8 C 1,9 C 4,0 km/h
24.11.2010 01:00 2,3 C 88 % 1007,1 hPa 0,4 l/m 27,9 km/h W-SW 0,5 C -9,6 C 15,5 km/h
24.11.2010 02:00 2,1 C 88 % 1007,1 hPa 0,0 l/m 1,3 km/h W 0,3 C 2,1 C 0,7 km/h
24.11.2010 03:00 2,2 C 88 % 1006,9 hPa 0,0 l/m 3,9 km/h W-SW 0,4 C 2,2 C 2,2 km/h
24.11.2010 04:00 2,4 C 88 % 1007,2 hPa 0,0 l/m 3,2 km/h W 0,6 C 2,4 C 1,8 km/h
24.11.2010 05:00 2,1 C 88 % 1007,2 hPa 0,0 l/m 7,1 km/h SW 0,3 C 1,4 C 4,0 km/h
24.11.2010 06:00 2,3 C 88 % 1007,3 hPa 0,0 l/m 11,7 km/h S-SW 0,5 C -2,1 C 6,5 km/h
24.11.2010 07:00 2,7 C 89 % 1007,5 hPa 0,0 l/m 19,4 km/h W-SW 1,1 C -5,9 C 10,8 km/h
24.11.2010 08:00 2,6 C 88 % 1007,7 hPa 0,0 l/m 24,0 km/h W-SW 0,8 C -7,8 C 13,3 km/h
24.11.2010 09:00 2,4 C 88 % 1007,5 hPa 0,4 l/m 0,0 km/h W 0,6 C 2,4 C 0,0 km/h
24.11.2010 10:00 2,9 C 88 % 1008,0 hPa 0,0 l/m 12,3 km/h S 1,1 C -1,9 C 6,8 km/h
24.11.2010 11:00 3,4 C 88 % 1007,8 hPa 0,0 l/m 22,0 km/h SW 1,6 C -6,0 C 12,2 km/h
24.11.2010 12:00 3,8 C 88 % 1007,6 hPa 0,0 l/m 22,0 km/h SW 2,0 C -5,5 C 12,2 km/h
24.11.2010 13:00 4,1 C 87 % 1007,4 hPa 0,0 l/m 14,9 km/h SW 2,1 C -2,0 C 8,3 km/h
24.11.2010 14:00 4,3 C 86 % 1007,1 hPa 0,0 l/m 11,7 km/h S 2,2 C 0,1 C 6,5 km/h
24.11.2010 15:00 4,3 C 84 % 1007,0 hPa 0,0 l/m 7,8 km/h SW 1,8 C 3,0 C 4,3 km/h
24.11.2010 16:00 3,9 C 84 % 1007,0 hPa 0,0 l/m 17,5 km/h S-SW 1,4 C -3,5 C 9,7 km/h
24.11.2010 17:00 3,9 C 84 % 1006,8 hPa 0,0 l/m 9,7 km/h SW 1,4 C 1,1 C 5,4 km/h
24.11.2010 18:00 3,9 C 85 % 1007,0 hPa 0,0 l/m 9,1 km/h SW 1,6 C 1,5 C 5,0 km/h
24.11.2010 19:00 3,8 C 85 % 1007,2 hPa 0,0 l/m 9,7 km/h SW 1,5 C 1,0 C 5,4 km/h
24.11.2010 20:00 3,1 C 88 % 1007,7 hPa 0,0 l/m 13,6 km/h W-SW 1,3 C -2,4 C 7,6 km/h
24.11.2010 21:00 2,7 C 88 % 1007,9 hPa 0,0 l/m 7,8 km/h SW 0,9 C 1,4 C 4,3 km/h
24.11.2010 22:00 3,0 C 87 % 1008,0 hPa 0,0 l/m 24,0 km/h S-SW 1,1 C -7,3 C 13,3 km/h
24.11.2010 23:00 2,8 C 88 % 1007,7 hPa 0,0 l/m 10,4 km/h SW 1,0 C -0,7 C 5,8 km/h
25.11.2010 00:00 2,4 C 88 % 1007,5 hPa 0,0 l/m 11,7 km/h S-SW 0,6 C -2,0 C 6,5 km/h
25.11.2010 01:00 2,4 C 87 % 1007,0 hPa 0,0 l/m 8,4 km/h SW 0,5 C 0,5 C 4,7 km/h
25.11.2010 02:00 1,9 C 88 % 1006,8 hPa 0,0 l/m 5,8 km/h S 0,1 C 1,9 C 3,2 km/h
25.11.2010 03:00 1,8 C 87 % 1006,4 hPa 0,0 l/m 7,8 km/h S -0,1 C 0,4 C 4,3 km/h
25.11.2010 04:00 2,5 C 86 % 1005,4 hPa 0,0 l/m 0,0 km/h O-SO 0,4 C 2,5 C 0,0 km/h
25.11.2010 05:00 2,4 C 86 % 1004,9 hPa 0,0 l/m 0,0 km/h S 0,3 C 2,4 C 0,0 km/h
25.11.2010 06:00 3,3 C 82 % 1004,4 hPa 0,0 l/m 0,0 km/h S-SW 0,5 C 3,3 C 0,0 km/h
25.11.2010 07:00 3,6 C 80 % 1004,0 hPa 0,0 l/m 14,9 km/h W-SW 0,5 C -2,6 C 8,3 km/h
25.11.2010 08:00 3,9 C 76 % 1003,5 hPa 0,0 l/m 16,2 km/h S-SW 0,1 C -2,9 C 9,0 km/h
25.11.2010 09:00 3,1 C 83 % 1003,3 hPa 0,0 l/m 39,5 km/h S-SW 0,5 C -11,2 C 22,0 km/h
25.11.2010 10:00 4,3 C 81 % 1003,0 hPa 0,0 l/m 49,2 km/h SW 1,3 C -11,0 C 27,4 km/h
25.11.2010 11:00 4,9 C 78 % 1002,5 hPa 0,0 l/m 24,6 km/h SW 1,4 C -5,0 C 13,7 km/h
25.11.2010 12:00 4,9 C 77 % 1002,0 hPa 0,0 l/m 21,4 km/h W-SW 1,2 C -3,8 C 11,9 km/h
25.11.2010 13:00 5,5 C 75 % 1001,1 hPa 0,0 l/m 22,0 km/h SW 1,4 C -3,3 C 12,2 km/h
25.11.2010 14:00 5,5 C 75 % 1000,4 hPa 0,0 l/m 4,5 km/h W-SW 1,4 C 5,5 C 2,5 km/h
25.11.2010 15:00 5,5 C 76 % 999,6 hPa 0,0 l/m 13,0 km/h SW 1,6 C 0,7 C 7,2 km/h
25.11.2010 16:00 4,8 C 78 % 998,9 hPa 0,0 l/m 7,8 km/h S 1,3 C 3,6 C 4,3 km/h
25.11.2010 17:00 3,1 C 87 % 999,3 hPa 0,4 l/m 0,0 km/h NW 1,2 C 3,1 C 0,0 km/h
25.11.2010 18:00 2,3 C 88 % 998,7 hPa 0,4 l/m 0,6 km/h S-SO 0,5 C 2,3 C 0,4 km/h
25.11.2010 19:00 2,2 C 88 % 998,8 hPa 0,4 l/m 0,0 km/h S-SO 0,4 C 2,2 C 0,0 km/h
25.11.2010 20:00 1,4 C 88 % 998,4 hPa 0,7 l/m 0,0 km/h N-NO -0,4 C 1,4 C 0,0 km/h
25.11.2010 21:00 0,6 C 88 % 998,4 hPa 0,4 l/m 0,0 km/h N-NW -1,2 C 0,6 C 0,0 km/h
25.11.2010 22:00 0,1 C 87 % 998,5 hPa 0,0 l/m 0,0 km/h NW -1,8 C 0,1 C 0,0 km/h
25.11.2010 23:00 0,1 C 87 % 999,2 hPa 0,0 l/m 0,0 km/h NW -1,8 C 0,1 C 0,0 km/h
26.11.2010 00:00 0,1 C 87 % 999,9 hPa 0,0 l/m 0,0 km/h NW -1,8 C 0,1 C 0,0 km/h
26.11.2010 01:00 0,1 C 86 % 1000,7 hPa 0,0 l/m 0,0 km/h NW -2,0 C 0,1 C 0,0 km/h
26.11.2010 02:00 -0,1 C 86 % 1001,4 hPa 0,0 l/m 0,0 km/h NW -2,2 C -0,1 C 0,0 km/h
26.11.2010 03:00 0,0 C 86 % 1001,7 hPa 0,0 l/m 0,0 km/h NW -2,1 C 0,0 C 0,0 km/h
26.11.2010 04:00 0,0 C 86 % 1002,3 hPa 0,0 l/m 0,0 km/h NW -2,1 C 0,0 C 0,0 km/h
26.11.2010 05:00 -0,1 C 86 % 1002,6 hPa 0,0 l/m 0,0 km/h NW -2,2 C -0,1 C 0,0 km/h
26.11.2010 06:00 -0,1 C 86 % 1003,1 hPa 0,0 l/m 0,0 km/h NW -2,2 C -0,1 C 0,0 km/h
26.11.2010 07:00 -0,2 C 87 % 1003,1 hPa 0,0 l/m 0,0 km/h NW -2,1 C -0,2 C 0,0 km/h
26.11.2010 08:00 -0,1 C 86 % 1003,6 hPa 0,0 l/m 0,0 km/h NW -2,2 C -0,1 C 0,0 km/h
26.11.2010 09:00 0,4 C 86 % 1003,9 hPa 0,0 l/m 0,0 km/h NW -1,7 C 0,4 C 0,0 km/h
26.11.2010 10:00 0,8 C 88 % 1004,0 hPa 0,0 l/m 0,0 km/h NW -1,0 C 0,8 C 0,0 km/h
26.11.2010 11:00 0,7 C 89 % 1004,1 hPa 0,0 l/m 0,0 km/h NW -0,9 C 0,7 C 0,0 km/h
26.11.2010 12:00 1,4 C 88 % 1003,7 hPa 0,0 l/m 0,0 km/h SW -0,4 C 1,4 C 0,0 km/h
26.11.2010 13:00 1,6 C 86 % 1003,4 hPa 0,4 l/m 7,8 km/h W-SW -0,5 C 0,2 C 4,3 km/h
26.11.2010 14:00 0,6 C 89 % 1003,2 hPa 0,0 l/m 14,9 km/h W-SW -1,0 C -6,2 C 8,3 km/h
26.11.2010 15:00 0,4 C 89 % 1003,7 hPa 0,0 l/m 14,9 km/h SW -1,2 C -6,4 C 8,3 km/h
26.11.2010 16:00 0,4 C 88 % 1003,5 hPa 0,4 l/m 22,0 km/h W-SW -1,3 C -10,0 C 12,2 km/h
26.11.2010 17:00 0,3 C 88 % 1003,5 hPa 0,0 l/m 7,8 km/h W-SW -1,4 C -1,1 C 4,3 km/h
26.11.2010 18:00 0,2 C 88 % 1004,1 hPa 0,0 l/m 6,5 km/h W-SW -1,5 C 0,1 C 3,6 km/h
26.11.2010 19:00 0,1 C 89 % 1004,1 hPa 0,0 l/m 20,1 km/h W-SW -1,5 C -9,5 C 11,2 km/h
26.11.2010 20:00 0,0 C 89 % 1004,4 hPa 0,0 l/m 3,9 km/h S-SW -1,6 C 0,0 C 2,2 km/h
26.11.2010 21:00 -0,1 C 88 % 1004,7 hPa 0,0 l/m 1,9 km/h W -1,8 C -0,1 C 1,1 km/h
26.11.2010 22:00 -0,3 C 88 % 1004,8 hPa 0,0 l/m 3,2 km/h S -2,0 C -0,3 C 1,8 km/h
26.11.2010 23:00 -0,1 C 88 % 1004,7 hPa 0,0 l/m 5,2 km/h W-SW -1,8 C -0,1 C 2,9 km/h
27.11.2010 00:00 -0,2 C 88 % 1004,7 hPa 0,0 l/m 1,3 km/h W-SW -1,9 C -0,2 C 0,7 km/h
27.11.2010 01:00 -0,3 C 88 % 1004,6 hPa 0,0 l/m 0,0 km/h W-NW -2,0 C -0,3 C 0,0 km/h
27.11.2010 02:00 -0,8 C 88 % 1004,8 hPa 0,0 l/m 0,0 km/h NW -2,5 C -0,8 C 0,0 km/h
27.11.2010 03:00 -1,1 C 88 % 1004,9 hPa 0,0 l/m 0,0 km/h W-NW -2,8 C -1,1 C 0,0 km/h
27.11.2010 04:00 -3,2 C 89 % 1003,9 hPa 0,0 l/m 0,0 km/h SO -4,7 C -3,2 C 0,0 km/h
27.11.2010 05:00 -4,6 C 89 % 1003,7 hPa 0,0 l/m 0,0 km/h O-NO -6,1 C -4,6 C 0,0 km/h
27.11.2010 06:00 -5,1 C 89 % 1003,4 hPa 0,0 l/m 0,0 km/h SO -6,6 C -5,1 C 0,0 km/h
27.11.2010 07:00 -5,7 C 89 % 1003,2 hPa 0,0 l/m 0,0 km/h SO -7,2 C -5,7 C 0,0 km/h
27.11.2010 08:00 -5,2 C 89 % 1003,3 hPa 0,0 l/m 0,0 km/h SO -6,7 C -5,2 C 0,0 km/h
27.11.2010 09:00 -0,1 C 88 % 1002,7 hPa 0,0 l/m 0,0 km/h SO -1,8 C -0,1 C 0,0 km/h
27.11.2010 10:00 1,2 C 82 % 1002,7 hPa 0,0 l/m 3,2 km/h SO -1,5 C 1,2 C 1,8 km/h
27.11.2010 11:00 3,6 C 73 % 1002,6 hPa 0,4 l/m 0,0 km/h SO -0,8 C 3,6 C 0,0 km/h
27.11.2010 12:00 2,3 C 73 % 1002,2 hPa 0,0 l/m 0,0 km/h SO -2,0 C 2,3 C 0,0 km/h
27.11.2010 13:00 1,8 C 74 % 1002,0 hPa 0,0 l/m 0,0 km/h W-SW -2,3 C 1,8 C 0,0 km/h
27.11.2010 14:00 0,9 C 79 % 1001,8 hPa 0,0 l/m 0,0 km/h W-SW -2,3 C 0,9 C 0,0 km/h
27.11.2010 15:00 0,1 C 81 % 1001,5 hPa 0,0 l/m 0,0 km/h W-SW -2,8 C 0,1 C 0,0 km/h
27.11.2010 16:00 -0,7 C 84 % 1001,4 hPa 0,0 l/m 0,0 km/h W-SW -3,1 C -0,7 C 0,0 km/h
27.11.2010 17:00 -1,3 C 87 % 1001,3 hPa 0,0 l/m 0,0 km/h W-SW -3,2 C -1,3 C 0,0 km/h
27.11.2010 18:00 -1,7 C 88 % 1001,4 hPa 0,0 l/m 0,0 km/h W-SW -3,4 C -1,7 C 0,0 km/h
27.11.2010 19:00 -1,4 C 88 % 1001,2 hPa 0,0 l/m 0,0 km/h W-NW -3,1 C -1,4 C 0,0 km/h
27.11.2010 20:00 -1,1 C 88 % 1001,3 hPa 0,0 l/m 0,0 km/h W -2,8 C -1,1 C 0,0 km/h
27.11.2010 21:00 -1,1 C 88 % 1001,6 hPa 0,0 l/m 0,0 km/h SW -2,8 C -1,1 C 0,0 km/h
27.11.2010 22:00 -1,1 C 88 % 1001,6 hPa 0,0 l/m 0,0 km/h S -2,8 C -1,1 C 0,0 km/h
27.11.2010 23:00 -1,0 C 88 % 1002,2 hPa 0,0 l/m 0,0 km/h SO -2,7 C -1,0 C 0,0 km/h
28.11.2010 00:00 -1,6 C 88 % 1002,3 hPa 0,0 l/m 0,0 km/h SO -3,3 C -1,6 C 0,0 km/h
28.11.2010 01:00 -2,2 C 88 % 1002,0 hPa 0,0 l/m 0,0 km/h O -3,9 C -2,2 C 0,0 km/h
28.11.2010 02:00 -1,4 C 87 % 1002,1 hPa 0,0 l/m 0,0 km/h O -3,3 C -1,4 C 0,0 km/h
28.11.2010 03:00 -2,7 C 88 % 1002,2 hPa 0,0 l/m 0,0 km/h O -4,4 C -2,7 C 0,0 km/h
28.11.2010 04:00 -5,1 C 88 % 1001,9 hPa 0,0 l/m 0,0 km/h O -6,8 C -5,1 C 0,0 km/h
28.11.2010 05:00 -3,9 C 88 % 1001,7 hPa 0,0 l/m 0,0 km/h O -5,6 C -3,9 C 0,0 km/h
28.11.2010 06:00 -3,5 C 88 % 1001,8 hPa 0,0 l/m 0,0 km/h O -5,2 C -3,5 C 0,0 km/h
28.11.2010 07:00 -3,4 C 88 % 1001,9 hPa 0,0 l/m 0,0 km/h O -5,1 C -3,4 C 0,0 km/h
28.11.2010 08:00 -3,8 C 88 % 1001,9 hPa 0,0 l/m 0,0 km/h O -5,5 C -3,8 C 0,0 km/h
28.11.2010 09:00 -2,7 C 87 % 1002,0 hPa 0,0 l/m 0,0 km/h O -4,6 C -2,7 C 0,0 km/h
28.11.2010 10:00 -1,6 C 87 % 1002,0 hPa 0,0 l/m 0,0 km/h O -3,5 C -1,6 C 0,0 km/h
28.11.2010 11:00 0,1 C 89 % 1001,9 hPa 0,0 l/m 0,0 km/h O -1,5 C 0,1 C 0,0 km/h
28.11.2010 12:00 0,2 C 87 % 1001,1 hPa 0,0 l/m 0,0 km/h O -1,7 C 0,2 C 0,0 km/h
28.11.2010 13:00 0,0 C 87 % 1000,5 hPa 0,0 l/m 0,0 km/h O -1,9 C 0,0 C 0,0 km/h
28.11.2010 14:00 -0,5 C 88 % 1000,1 hPa 0,0 l/m 0,0 km/h O -2,2 C -0,5 C 0,0 km/h
28.11.2010 15:00 -0,8 C 88 % 999,5 hPa 0,0 l/m 0,0 km/h O -2,5 C -0,8 C 0,0 km/h
28.11.2010 16:00 -1,0 C 88 % 999,2 hPa 0,0 l/m 0,0 km/h O -2,7 C -1,0 C 0,0 km/h
28.11.2010 17:00 -1,0 C 88 % 999,0 hPa 0,0 l/m 0,0 km/h O -2,7 C -1,0 C 0,0 km/h
28.11.2010 18:00 -1,0 C 88 % 999,0 hPa 0,0 l/m 0,0 km/h O -2,7 C -1,0 C 0,0 km/h
28.11.2010 19:00 -0,9 C 88 % 998,9 hPa 0,0 l/m 0,0 km/h O -2,6 C -0,9 C 0,0 km/h
28.11.2010 20:00 -0,9 C 87 % 998,7 hPa 0,0 l/m 0,0 km/h O -2,8 C -0,9 C 0,0 km/h
28.11.2010 21:00 -0,8 C 87 % 998,8 hPa 0,0 l/m 0,0 km/h O -2,7 C -0,8 C 0,0 km/h
28.11.2010 22:00 -0,8 C 87 % 999,1 hPa 0,0 l/m 0,0 km/h O -2,7 C -0,8 C 0,0 km/h
28.11.2010 23:00 -0,7 C 87 % 999,4 hPa 0,0 l/m 0,0 km/h O -2,6 C -0,7 C 0,0 km/h
Min-Datum _ 27.11.10 27.11.10 25.11.10 - 22.11.10 - 27.11.10 25.11.10 22.11.10
_ Min-Zeit 07:30 11:30 20:30 - 00:30 - 07:30 09:29 00:30
Minimum _ -5,7 C 73 % 998,4 hPa - 0,0 km/h - -7,2 C -11,2 C 0,0 km/h
Max-Datum _ 25.11.10 23.11.10 24.11.10 22.11.10 25.11.10 - 22.11.10 25.11.10 25.11.10
_ Max-Zeit 13:29 15:30 10:30 21:30 10:29 - 12:30 14:29 10:29
Maximum _ 5,5 C 89 % 1008,0 hPa 0,7 l/m 49,2 km/h
SW
- 2,8 C 5,5 C 27,4 km/h
SW
Durchschnitt _ 1,4 C 86 % 1002,9 hPa #10,3 l/m 4,0 km/h W-SW -0,6 C 0,1 C 2,2 km/h